createdAt,value
2017-05-22T00:00:25.159Z,1016.92
2017-05-22T00:00:51.257Z,1016.92
2017-05-22T00:01:17.369Z,1016.93
2017-05-22T00:01:43.476Z,1016.94
2017-05-22T00:02:09.633Z,1016.93
2017-05-22T00:02:35.723Z,1016.91
2017-05-22T00:03:01.851Z,1016.87
2017-05-22T00:03:28.015Z,1016.85
2017-05-22T00:03:54.157Z,1016.87
2017-05-22T00:04:20.286Z,1016.86
2017-05-22T00:04:46.400Z,1016.87
2017-05-22T00:05:12.585Z,1016.89
2017-05-22T00:05:38.684Z,1016.92
2017-05-22T00:06:04.775Z,1016.89
2017-05-22T00:06:30.906Z,1016.88
2017-05-22T00:06:57.042Z,1016.9
2017-05-22T00:07:23.154Z,1016.88
2017-05-22T00:07:49.279Z,1016.89
2017-05-22T00:08:15.467Z,1016.87
2017-05-22T00:08:41.613Z,1016.85
2017-05-22T00:09:07.734Z,1016.86
2017-05-22T00:09:33.900Z,1016.84
2017-05-22T00:10:00.048Z,1016.85
2017-05-22T00:10:26.138Z,1016.88
2017-05-22T00:10:52.276Z,1016.86
2017-05-22T00:11:18.428Z,1016.85
2017-05-22T00:11:44.543Z,1016.85
2017-05-22T00:12:10.652Z,1016.84
2017-05-22T00:12:36.781Z,1016.86
2017-05-22T00:13:02.895Z,1016.84
2017-05-22T00:13:29.048Z,1016.85
2017-05-22T00:13:55.239Z,1016.87
2017-05-22T00:14:21.327Z,1016.84
2017-05-22T00:14:47.506Z,1016.84
2017-05-22T00:15:13.654Z,1016.83
2017-05-22T00:15:39.789Z,1016.8
2017-05-22T00:16:05.889Z,1016.82
2017-05-22T00:16:32.004Z,1016.79
2017-05-22T00:16:58.136Z,1016.84
2017-05-22T00:17:24.269Z,1016.8
2017-05-22T00:17:50.406Z,1016.82
2017-05-22T00:18:16.532Z,1016.79
2017-05-22T00:18:42.668Z,1016.78
2017-05-22T00:19:08.830Z,1016.79
2017-05-22T00:19:34.979Z,1016.78
2017-05-22T00:20:01.114Z,1016.75
2017-05-22T00:20:27.208Z,1016.73
2017-05-22T00:20:53.343Z,1016.77
2017-05-22T00:21:19.481Z,1016.77
2017-05-22T00:21:45.584Z,1016.73
2017-05-22T00:22:11.717Z,1016.75
2017-05-22T00:22:37.810Z,1016.72
2017-05-22T00:23:03.940Z,1016.72
2017-05-22T00:23:30.069Z,1016.69
2017-05-22T00:23:56.216Z,1016.73
2017-05-22T00:24:22.334Z,1016.7
2017-05-22T00:24:48.472Z,1016.72
2017-05-22T00:25:14.625Z,1016.71
2017-05-22T00:25:40.741Z,1016.72
2017-05-22T00:26:06.847Z,1016.68
2017-05-22T00:26:32.989Z,1016.72
2017-05-22T00:26:59.096Z,1016.7
2017-05-22T00:27:25.217Z,1016.64
2017-05-22T00:27:51.359Z,1016.67
2017-05-22T00:28:17.500Z,1016.69
2017-05-22T00:28:43.651Z,1016.68
2017-05-22T00:29:09.793Z,1016.66
2017-05-22T00:29:35.897Z,1016.7
2017-05-22T00:30:02.052Z,1016.67
2017-05-22T00:30:28.167Z,1016.67
2017-05-22T00:30:54.269Z,1016.69
2017-05-22T00:31:20.377Z,1016.68
2017-05-22T00:31:46.520Z,1016.66
2017-05-22T00:32:12.646Z,1016.68
2017-05-22T00:32:38.758Z,1016.65
2017-05-22T00:33:04.975Z,1016.64
2017-05-22T00:33:31.106Z,1016.65
2017-05-22T00:33:57.215Z,1016.66
2017-05-22T00:34:23.367Z,1016.67
2017-05-22T00:34:49.474Z,1016.63
2017-05-22T00:35:15.563Z,1016.65
2017-05-22T00:35:41.688Z,1016.67
2017-05-22T00:36:07.796Z,1016.63
2017-05-22T00:36:33.886Z,1016.61
2017-05-22T00:36:59.984Z,1016.62
2017-05-22T00:37:26.140Z,1016.63
2017-05-22T00:37:52.271Z,1016.61
2017-05-22T00:38:18.459Z,1016.62
2017-05-22T00:38:44.597Z,1016.62
2017-05-22T00:39:10.748Z,1016.6
2017-05-22T00:39:36.908Z,1016.63
2017-05-22T00:40:03.056Z,1016.58
2017-05-22T00:40:29.177Z,1016.61
2017-05-22T00:40:55.312Z,1016.6
2017-05-22T00:41:21.410Z,1016.63
2017-05-22T00:41:47.573Z,1016.6
2017-05-22T00:42:13.739Z,1016.62
2017-05-22T00:42:39.864Z,1016.63
2017-05-22T00:43:05.965Z,1016.64
2017-05-22T00:43:32.082Z,1016.61
2017-05-22T00:43:58.204Z,1016.64
2017-05-22T00:44:24.338Z,1016.62
2017-05-22T00:44:50.433Z,1016.65
2017-05-22T00:45:16.548Z,1016.65
2017-05-22T00:45:42.658Z,1016.66
2017-05-22T00:46:08.781Z,1016.68
2017-05-22T00:46:34.872Z,1016.67
2017-05-22T00:47:01.037Z,1016.65
2017-05-22T00:47:27.084Z,1016.66
2017-05-22T00:47:53.225Z,1016.66
2017-05-22T00:48:19.381Z,1016.69
2017-05-22T00:48:45.522Z,1016.67
2017-05-22T00:49:11.661Z,1016.67
2017-05-22T00:49:37.812Z,1016.68
2017-05-22T00:50:03.950Z,1016.68
2017-05-22T00:50:30.078Z,1016.65
2017-05-22T00:50:56.181Z,1016.65
2017-05-22T00:51:22.270Z,1016.67
2017-05-22T00:51:48.403Z,1016.69
2017-05-22T00:52:14.509Z,1016.7
2017-05-22T00:52:40.644Z,1016.65
2017-05-22T00:53:06.821Z,1016.65
2017-05-22T00:53:32.957Z,1016.68
2017-05-22T00:53:59.130Z,1016.66
2017-05-22T00:54:25.250Z,1016.67
2017-05-22T00:54:51.383Z,1016.64
2017-05-22T00:55:17.503Z,1016.64
2017-05-22T00:55:43.620Z,1016.64
2017-05-22T00:56:09.728Z,1016.65
2017-05-22T00:56:35.825Z,1016.64
2017-05-22T00:57:01.968Z,1016.64
2017-05-22T00:57:28.036Z,1016.62
2017-05-22T00:57:54.277Z,1016.62
2017-05-22T00:58:20.333Z,1016.66
2017-05-22T00:58:46.492Z,1016.62
2017-05-22T00:59:12.625Z,1016.64
2017-05-22T00:59:38.742Z,1016.63
2017-05-22T01:00:04.838Z,1016.63
2017-05-22T01:00:30.954Z,1016.59
2017-05-22T01:00:57.114Z,1016.63
2017-05-22T01:01:23.214Z,1016.61
2017-05-22T01:01:49.304Z,1016.6
2017-05-22T01:02:15.408Z,1016.62
2017-05-22T01:02:41.567Z,1016.61
2017-05-22T01:03:07.730Z,1016.6
2017-05-22T01:03:33.904Z,1016.6
2017-05-22T01:04:00.065Z,1016.58
2017-05-22T01:04:26.157Z,1016.59
2017-05-22T01:04:52.303Z,1016.56
2017-05-22T01:05:18.400Z,1016.61
2017-05-22T01:05:44.521Z,1016.6
2017-05-22T01:06:10.628Z,1016.57
2017-05-22T01:06:36.717Z,1016.57
2017-05-22T01:07:02.818Z,1016.54
2017-05-22T01:07:28.978Z,1016.55
2017-05-22T01:07:55.113Z,1016.57
2017-05-22T01:08:21.211Z,1016.58
2017-05-22T01:08:47.316Z,1016.53
2017-05-22T01:09:13.434Z,1016.55
2017-05-22T01:09:39.523Z,1016.52
2017-05-22T01:10:05.688Z,1016.55
2017-05-22T01:10:31.813Z,1016.55
2017-05-22T01:10:57.971Z,1016.53
2017-05-22T01:11:24.086Z,1016.54
2017-05-22T01:11:50.205Z,1016.52
2017-05-22T01:12:16.338Z,1016.51
2017-05-22T01:12:42.508Z,1016.53
2017-05-22T01:13:08.625Z,1016.51
2017-05-22T01:13:34.795Z,1016.5
2017-05-22T01:14:00.974Z,1016.5
2017-05-22T01:14:27.090Z,1016.51
2017-05-22T01:14:53.218Z,1016.49
2017-05-22T01:15:19.345Z,1016.5
2017-05-22T01:15:45.461Z,1016.47
2017-05-22T01:16:11.591Z,1016.48
2017-05-22T01:16:37.708Z,1016.51
2017-05-22T01:17:03.845Z,1016.5
2017-05-22T01:17:29.971Z,1016.5
2017-05-22T01:17:56.060Z,1016.5
2017-05-22T01:18:22.167Z,1016.49
2017-05-22T01:18:48.324Z,1016.45
2017-05-22T01:19:14.441Z,1016.48
2017-05-22T01:19:40.572Z,1016.51
2017-05-22T01:20:06.681Z,1016.46
2017-05-22T01:20:32.768Z,1016.46
2017-05-22T01:20:58.942Z,1016.46
2017-05-22T01:21:25.075Z,1016.47
2017-05-22T01:21:51.193Z,1016.44
2017-05-22T01:22:17.295Z,1016.44
2017-05-22T01:22:43.412Z,1016.46
2017-05-22T01:23:09.570Z,1016.46
2017-05-22T01:23:35.676Z,1016.44
2017-05-22T01:24:01.844Z,1016.41
2017-05-22T01:24:27.969Z,1016.4
2017-05-22T01:24:54.132Z,1016.44
2017-05-22T01:25:20.224Z,1016.42
2017-05-22T01:25:46.344Z,1016.4
2017-05-22T01:26:12.454Z,1016.43
2017-05-22T01:26:38.573Z,1016.4
2017-05-22T01:27:04.690Z,1016.4
2017-05-22T01:27:30.792Z,1016.38
2017-05-22T01:27:56.919Z,1016.36
2017-05-22T01:28:23.060Z,1016.41
2017-05-22T01:28:49.199Z,1016.34
2017-05-22T01:29:15.322Z,1016.39
2017-05-22T01:29:41.458Z,1016.41
2017-05-22T01:30:07.579Z,1016.37
2017-05-22T01:30:33.665Z,1016.35
2017-05-22T01:30:59.774Z,1016.35
2017-05-22T01:31:25.873Z,1016.37
2017-05-22T01:31:51.986Z,1016.37
2017-05-22T01:32:18.094Z,1016.34
2017-05-22T01:32:44.222Z,1016.36
2017-05-22T01:33:10.370Z,1016.35
2017-05-22T01:33:36.488Z,1016.34
2017-05-22T01:34:02.630Z,1016.31
2017-05-22T01:34:28.796Z,1016.31
2017-05-22T01:34:54.946Z,1016.35
2017-05-22T01:35:21.061Z,1016.35
2017-05-22T01:35:47.197Z,1016.34
2017-05-22T01:36:13.328Z,1016.33
2017-05-22T01:36:39.419Z,1016.33
2017-05-22T01:37:05.524Z,1016.31
2017-05-22T01:37:31.688Z,1016.32
2017-05-22T01:37:57.828Z,1016.31
2017-05-22T01:38:23.984Z,1016.29
2017-05-22T01:38:50.114Z,1016.31
2017-05-22T01:39:16.209Z,1016.34
2017-05-22T01:39:42.332Z,1016.31
2017-05-22T01:40:08.493Z,1016.3
2017-05-22T01:40:34.590Z,1016.28
2017-05-22T01:41:00.732Z,1016.3
2017-05-22T01:41:26.869Z,1016.3
2017-05-22T01:41:53.026Z,1016.3
2017-05-22T01:42:19.115Z,1016.28
2017-05-22T01:42:45.270Z,1016.26
2017-05-22T01:43:11.373Z,1016.26
2017-05-22T01:43:37.511Z,1016.28
2017-05-22T01:44:03.691Z,1016.29
2017-05-22T01:44:29.855Z,1016.27
2017-05-22T01:44:55.994Z,1016.28
2017-05-22T01:45:22.091Z,1016.24
2017-05-22T01:45:48.181Z,1016.25
2017-05-22T01:46:14.342Z,1016.25
2017-05-22T01:46:40.441Z,1016.25
2017-05-22T01:47:06.557Z,1016.23
2017-05-22T01:47:32.683Z,1016.25
2017-05-22T01:47:58.816Z,1016.25
2017-05-22T01:48:24.949Z,1016.25
2017-05-22T01:48:51.104Z,1016.26
2017-05-22T01:49:17.236Z,1016.23
2017-05-22T01:49:43.356Z,1016.24
2017-05-22T01:50:09.561Z,1016.18
2017-05-22T01:50:35.675Z,1016.22
2017-05-22T01:51:01.782Z,1016.22
2017-05-22T01:51:27.921Z,1016.18
2017-05-22T01:51:54.081Z,1016.2
2017-05-22T01:52:20.206Z,1016.22
2017-05-22T01:52:46.342Z,1016.2
2017-05-22T01:53:12.504Z,1016.17
2017-05-22T01:53:38.627Z,1016.22
2017-05-22T01:54:04.790Z,1016.26
2017-05-22T01:54:30.910Z,1016.23
2017-05-22T01:54:57.000Z,1016.16
2017-05-22T01:55:23.155Z,1016.21
2017-05-22T01:55:49.306Z,1016.19
2017-05-22T01:56:15.418Z,1016.21
2017-05-22T01:56:41.509Z,1016.21
2017-05-22T01:57:07.656Z,1016.2
2017-05-22T01:57:33.845Z,1016.22
2017-05-22T01:57:59.995Z,1016.23
2017-05-22T01:58:26.087Z,1016.21
2017-05-22T01:58:52.223Z,1016.18
2017-05-22T01:59:18.342Z,1016.2
2017-05-22T01:59:44.435Z,1016.15
2017-05-22T02:00:10.570Z,1016.16
2017-05-22T02:00:36.702Z,1016.16
2017-05-22T02:01:02.823Z,1016.14
2017-05-22T02:01:28.945Z,1016.16
2017-05-22T02:01:55.060Z,1016.17
2017-05-22T02:02:21.198Z,1016.15
2017-05-22T02:02:47.403Z,1016.15
2017-05-22T02:03:13.590Z,1016.14
2017-05-22T02:03:39.696Z,1016.15
2017-05-22T02:04:05.819Z,1016.12
2017-05-22T02:04:31.907Z,1016.1
2017-05-22T02:04:58.036Z,1016.13
2017-05-22T02:05:24.143Z,1016.14
2017-05-22T02:05:50.254Z,1016.13
2017-05-22T02:06:16.506Z,1016.12
2017-05-22T02:06:42.601Z,1016.13
2017-05-22T02:07:08.706Z,1016.1
2017-05-22T02:07:34.835Z,1016.13
2017-05-22T02:08:00.926Z,1016.13
2017-05-22T02:08:27.052Z,1016.1
2017-05-22T02:08:53.239Z,1016.07
2017-05-22T02:09:19.403Z,1016.11
2017-05-22T02:09:45.528Z,1016.13
2017-05-22T02:10:11.661Z,1016.15
2017-05-22T02:10:37.752Z,1016.14
2017-05-22T02:11:03.850Z,1016.17
2017-05-22T02:11:29.982Z,1016.11
2017-05-22T02:11:56.100Z,1016.12
2017-05-22T02:12:22.209Z,1016.14
2017-05-22T02:12:48.320Z,1016.11
2017-05-22T02:13:14.473Z,1016.14
2017-05-22T02:13:40.635Z,1016.14
2017-05-22T02:14:06.775Z,1016.14
2017-05-22T02:14:32.889Z,1016.13
2017-05-22T02:14:58.998Z,1016.13
2017-05-22T02:15:25.094Z,1016.11
2017-05-22T02:15:51.184Z,1016.13
2017-05-22T02:16:17.320Z,1016.12
2017-05-22T02:16:43.416Z,1016.06
2017-05-22T02:17:09.532Z,1016.06
2017-05-22T02:17:35.669Z,1016.09
2017-05-22T02:18:01.837Z,1016.13
2017-05-22T02:18:27.972Z,1016.1
2017-05-22T02:18:54.097Z,1016.08
2017-05-22T02:19:20.189Z,1016.11
2017-05-22T02:19:46.328Z,1016.1
2017-05-22T02:20:12.475Z,1016.11
2017-05-22T02:20:38.567Z,1016.08
2017-05-22T02:21:05.002Z,1016.07
2017-05-22T02:21:31.161Z,1016.09
2017-05-22T02:21:57.324Z,1016.07
2017-05-22T02:22:23.427Z,1016.06
2017-05-22T02:22:49.533Z,1016.04
2017-05-22T02:23:15.648Z,1016.06
2017-05-22T02:23:41.847Z,1016.04
2017-05-22T02:24:07.953Z,1016.08
2017-05-22T02:24:34.045Z,1016.05
2017-05-22T02:25:00.165Z,1016.05
2017-05-22T02:25:26.302Z,1016.05
2017-05-22T02:25:52.445Z,1016.05
2017-05-22T02:26:18.536Z,1016.04
2017-05-22T02:26:44.673Z,1016.05
2017-05-22T02:27:10.799Z,1016.08
2017-05-22T02:27:36.936Z,1016.06
2017-05-22T02:28:03.052Z,1016.03
2017-05-22T02:28:29.141Z,1016.04
2017-05-22T02:28:55.266Z,1016.04
2017-05-22T02:29:21.361Z,1016.05
2017-05-22T02:29:47.473Z,1016.02
2017-05-22T02:30:13.609Z,1016.02
2017-05-22T02:30:39.735Z,1016.01
2017-05-22T02:31:05.826Z,1016.03
2017-05-22T02:31:31.961Z,1015.98
2017-05-22T02:31:58.116Z,1015.99
2017-05-22T02:32:24.231Z,1015.99
2017-05-22T02:32:50.334Z,1016.01
2017-05-22T02:33:16.439Z,1015.97
2017-05-22T02:33:42.554Z,1016.02
2017-05-22T02:34:08.681Z,1015.97
2017-05-22T02:34:34.825Z,1016
2017-05-22T02:35:00.960Z,1016.01
2017-05-22T02:35:30.094Z,1015.98
2017-05-22T02:35:56.235Z,1015.98
2017-05-22T02:36:22.366Z,1015.97
2017-05-22T02:36:48.502Z,1015.92
2017-05-22T02:37:14.591Z,1015.95
2017-05-22T02:37:40.716Z,1015.99
2017-05-22T02:38:06.822Z,1015.95
2017-05-22T02:38:32.912Z,1015.94
2017-05-22T02:38:59.060Z,1015.96
2017-05-22T02:39:25.166Z,1015.94
2017-05-22T02:39:51.285Z,1015.92
2017-05-22T02:40:17.467Z,1015.88
2017-05-22T02:40:43.584Z,1015.92
2017-05-22T02:41:09.684Z,1015.89
2017-05-22T02:41:35.820Z,1015.92
2017-05-22T02:42:01.937Z,1015.91
2017-05-22T02:42:28.057Z,1015.9
2017-05-22T02:42:54.245Z,1015.89
2017-05-22T02:43:20.367Z,1015.93
2017-05-22T02:43:46.458Z,1015.87
2017-05-22T02:44:12.596Z,1015.87
2017-05-22T02:44:38.723Z,1015.84
2017-05-22T02:45:04.862Z,1015.87
2017-05-22T02:45:30.969Z,1015.85
2017-05-22T02:45:57.064Z,1015.86
2017-05-22T02:46:23.172Z,1015.84
2017-05-22T02:46:49.290Z,1015.87
2017-05-22T02:47:15.429Z,1015.85
2017-05-22T02:47:41.566Z,1015.88
2017-05-22T02:48:07.713Z,1015.84
2017-05-22T02:48:33.813Z,1015.83
2017-05-22T02:48:59.915Z,1015.83
2017-05-22T02:49:26.013Z,1015.81
2017-05-22T02:49:52.130Z,1015.84
2017-05-22T02:50:18.285Z,1015.82
2017-05-22T02:50:44.446Z,1015.84
2017-05-22T02:51:10.589Z,1015.84
2017-05-22T02:51:36.715Z,1015.88
2017-05-22T02:52:02.806Z,1015.9
2017-05-22T02:52:28.914Z,1015.84
2017-05-22T02:52:55.042Z,1015.86
2017-05-22T02:53:21.157Z,1015.87
2017-05-22T02:53:47.315Z,1015.87
2017-05-22T02:54:13.532Z,1015.87
2017-05-22T02:54:39.672Z,1015.86
2017-05-22T02:55:05.820Z,1015.87
2017-05-22T02:55:31.954Z,1015.85
2017-05-22T02:55:58.098Z,1015.86
2017-05-22T02:56:24.223Z,1015.88
2017-05-22T02:56:50.319Z,1015.9
2017-05-22T02:57:16.451Z,1015.87
2017-05-22T02:57:42.588Z,1015.86
2017-05-22T02:58:08.676Z,1015.85
2017-05-22T02:58:34.779Z,1015.85
2017-05-22T02:59:00.883Z,1015.83
2017-05-22T02:59:26.978Z,1015.84
2017-05-22T02:59:53.075Z,1015.82
2017-05-22T03:00:19.293Z,1015.81
2017-05-22T03:00:45.386Z,1015.85
2017-05-22T03:01:11.554Z,1015.84
2017-05-22T03:01:37.666Z,1015.84
2017-05-22T03:02:03.761Z,1015.83
2017-05-22T03:02:29.865Z,1015.81
2017-05-22T03:02:56.010Z,1015.86
2017-05-22T03:03:22.107Z,1015.85
2017-05-22T03:03:48.269Z,1015.86
2017-05-22T03:04:14.387Z,1015.83
2017-05-22T03:04:40.503Z,1015.82
2017-05-22T03:05:06.639Z,1015.83
2017-05-22T03:05:32.737Z,1015.84
2017-05-22T03:05:58.903Z,1015.84
2017-05-22T03:06:25.034Z,1015.84
2017-05-22T03:06:51.134Z,1015.8
2017-05-22T03:07:17.226Z,1015.84
2017-05-22T03:07:43.331Z,1015.81
2017-05-22T03:08:09.464Z,1015.82
2017-05-22T03:08:35.577Z,1015.81
2017-05-22T03:09:01.703Z,1015.8
2017-05-22T03:09:27.892Z,1015.83
2017-05-22T03:09:54.010Z,1015.81
2017-05-22T03:10:20.131Z,1015.81
2017-05-22T03:10:46.237Z,1015.82
2017-05-22T03:11:12.356Z,1015.81
2017-05-22T03:11:38.472Z,1015.86
2017-05-22T03:12:04.638Z,1015.82
2017-05-22T03:12:30.735Z,1015.77
2017-05-22T03:12:56.854Z,1015.78
2017-05-22T03:13:23.070Z,1015.81
2017-05-22T03:13:49.237Z,1015.77
2017-05-22T03:14:15.372Z,1015.84
2017-05-22T03:14:41.517Z,1015.82
2017-05-22T03:15:07.681Z,1015.81
2017-05-22T03:15:33.818Z,1015.81
2017-05-22T03:15:59.941Z,1015.81
2017-05-22T03:16:26.035Z,1015.81
2017-05-22T03:16:52.140Z,1015.8
2017-05-22T03:17:18.270Z,1015.76
2017-05-22T03:17:44.386Z,1015.79
2017-05-22T03:18:10.510Z,1015.79
2017-05-22T03:18:36.646Z,1015.75
2017-05-22T03:19:02.761Z,1015.77
2017-05-22T03:19:28.886Z,1015.79
2017-05-22T03:19:55.051Z,1015.81
2017-05-22T03:20:21.157Z,1015.83
2017-05-22T03:20:47.259Z,1015.79
2017-05-22T03:21:13.372Z,1015.75
2017-05-22T03:21:39.476Z,1015.81
2017-05-22T03:22:05.584Z,1015.8
2017-05-22T03:22:31.673Z,1015.78
2017-05-22T03:22:57.800Z,1015.79
2017-05-22T03:23:23.934Z,1015.74
2017-05-22T03:23:50.050Z,1015.76
2017-05-22T03:24:16.196Z,1015.75
2017-05-22T03:24:42.375Z,1015.77
2017-05-22T03:25:08.533Z,1015.79
2017-05-22T03:25:34.668Z,1015.79
2017-05-22T03:26:00.784Z,1015.8
2017-05-22T03:26:26.910Z,1015.76
2017-05-22T03:26:53.018Z,1015.77
2017-05-22T03:27:19.110Z,1015.75
2017-05-22T03:27:45.233Z,1015.73
2017-05-22T03:28:11.369Z,1015.75
2017-05-22T03:28:37.516Z,1015.79
2017-05-22T03:29:03.657Z,1015.76
2017-05-22T03:29:29.793Z,1015.79
2017-05-22T03:29:55.889Z,1015.76
2017-05-22T03:30:21.980Z,1015.75
2017-05-22T03:30:48.142Z,1015.77
2017-05-22T03:31:14.239Z,1015.77
2017-05-22T03:31:40.331Z,1015.78
2017-05-22T03:32:06.462Z,1015.72
2017-05-22T03:32:32.597Z,1015.75
2017-05-22T03:32:58.762Z,1015.71
2017-05-22T03:33:24.862Z,1015.71
2017-05-22T03:33:50.966Z,1015.71
2017-05-22T03:34:17.108Z,1015.71
2017-05-22T03:34:43.256Z,1015.74
2017-05-22T03:35:09.390Z,1015.69
2017-05-22T03:35:35.531Z,1015.72
2017-05-22T03:36:01.667Z,1015.74
2017-05-22T03:36:27.755Z,1015.75
2017-05-22T03:36:53.879Z,1015.71
2017-05-22T03:37:19.983Z,1015.73
2017-05-22T03:37:46.129Z,1015.7
2017-05-22T03:38:12.271Z,1015.71
2017-05-22T03:38:38.488Z,1015.74
2017-05-22T03:39:04.635Z,1015.71
2017-05-22T03:39:30.725Z,1015.7
2017-05-22T03:39:56.835Z,1015.71
2017-05-22T03:40:22.961Z,1015.68
2017-05-22T03:40:49.051Z,1015.68
2017-05-22T03:41:15.158Z,1015.69
2017-05-22T03:41:41.296Z,1015.7
2017-05-22T03:42:07.487Z,1015.72
2017-05-22T03:42:33.582Z,1015.72
2017-05-22T03:42:59.699Z,1015.68
2017-05-22T03:43:25.807Z,1015.69
2017-05-22T03:43:51.933Z,1015.67
2017-05-22T03:44:18.077Z,1015.72
2017-05-22T03:44:44.210Z,1015.69
2017-05-22T03:45:11.905Z,1015.68
2017-05-22T03:45:38.387Z,1015.66
2017-05-22T03:46:05.741Z,1015.71
2017-05-22T03:46:33.027Z,1015.66
2017-05-22T03:47:00.746Z,1015.69
2017-05-22T03:47:27.594Z,1015.67
2017-05-22T03:47:53.735Z,1015.71
2017-05-22T03:48:19.892Z,1015.68
2017-05-22T03:48:46.048Z,1015.69
2017-05-22T03:49:12.190Z,1015.68
2017-05-22T03:49:38.345Z,1015.7
2017-05-22T03:50:04.506Z,1015.7
2017-05-22T03:50:30.620Z,1015.68
2017-05-22T03:50:56.722Z,1015.67
2017-05-22T03:51:22.887Z,1015.68
2017-05-22T03:51:48.977Z,1015.66
2017-05-22T03:52:15.177Z,1015.65
2017-05-22T03:52:41.282Z,1015.65
2017-05-22T03:53:07.399Z,1015.66
2017-05-22T03:53:33.513Z,1015.6
2017-05-22T03:53:59.651Z,1015.67
2017-05-22T03:54:25.779Z,1015.64
2017-05-22T03:54:51.893Z,1015.66
2017-05-22T03:55:18.081Z,1015.67
2017-05-22T03:55:44.183Z,1015.66
2017-05-22T03:56:10.272Z,1015.64
2017-05-22T03:56:36.373Z,1015.63
2017-05-22T03:57:02.778Z,1015.67
2017-05-22T03:57:28.866Z,1015.62
2017-05-22T03:57:55.017Z,1015.65
2017-05-22T03:58:21.113Z,1015.67
2017-05-22T03:58:47.244Z,1015.66
2017-05-22T03:59:13.402Z,1015.66
2017-05-22T03:59:39.493Z,1015.66
2017-05-22T04:00:05.621Z,1015.65
2017-05-22T04:00:31.726Z,1015.63
2017-05-22T04:00:57.839Z,1015.63
2017-05-22T04:01:23.938Z,1015.64
2017-05-22T04:01:50.044Z,1015.61
2017-05-22T04:02:16.160Z,1015.67
2017-05-22T04:02:42.306Z,1015.62
2017-05-22T04:03:08.468Z,1015.63
2017-05-22T04:03:34.591Z,1015.65
2017-05-22T04:04:00.748Z,1015.63
2017-05-22T04:04:26.837Z,1015.63
2017-05-22T04:04:52.964Z,1015.61
2017-05-22T04:05:19.128Z,1015.63
2017-05-22T04:05:45.218Z,1015.64
2017-05-22T04:06:11.316Z,1015.59
2017-05-22T04:06:37.423Z,1015.58
2017-05-22T04:07:03.553Z,1015.62
2017-05-22T04:07:29.655Z,1015.63
2017-05-22T04:07:55.770Z,1015.63
2017-05-22T04:08:21.863Z,1015.62
2017-05-22T04:08:47.977Z,1015.6
2017-05-22T04:09:14.137Z,1015.63
2017-05-22T04:09:40.278Z,1015.63
2017-05-22T04:10:06.411Z,1015.61
2017-05-22T04:10:32.502Z,1015.61
2017-05-22T04:10:58.592Z,1015.64
2017-05-22T04:11:24.759Z,1015.64
2017-05-22T04:11:50.856Z,1015.62
2017-05-22T04:12:17.071Z,1015.66
2017-05-22T04:12:43.206Z,1015.66
2017-05-22T04:13:09.321Z,1015.65
2017-05-22T04:13:35.435Z,1015.68
2017-05-22T04:14:01.588Z,1015.66
2017-05-22T04:14:27.719Z,1015.66
2017-05-22T04:14:53.859Z,1015.7
2017-05-22T04:15:19.987Z,1015.67
2017-05-22T04:15:46.102Z,1015.67
2017-05-22T04:16:12.209Z,1015.67
2017-05-22T04:16:38.310Z,1015.63
2017-05-22T04:17:04.424Z,1015.69
2017-05-22T04:17:30.579Z,1015.7
2017-05-22T04:17:56.739Z,1015.69
2017-05-22T04:18:22.855Z,1015.64
2017-05-22T04:18:48.955Z,1015.63
2017-05-22T04:19:15.090Z,1015.68
2017-05-22T04:19:41.180Z,1015.69
2017-05-22T04:20:07.324Z,1015.66
2017-05-22T04:20:33.450Z,1015.65
2017-05-22T04:20:59.555Z,1015.69
2017-05-22T04:21:25.657Z,1015.69
2017-05-22T04:21:51.770Z,1015.68
2017-05-22T04:22:17.869Z,1015.63
2017-05-22T04:22:43.976Z,1015.65
2017-05-22T04:23:10.090Z,1015.64
2017-05-22T04:23:36.190Z,1015.67
2017-05-22T04:24:02.297Z,1015.67
2017-05-22T04:24:28.417Z,1015.67
2017-05-22T04:24:54.533Z,1015.66
2017-05-22T04:25:20.701Z,1015.66
2017-05-22T04:25:46.856Z,1015.65
2017-05-22T04:26:13.011Z,1015.67
2017-05-22T04:26:39.102Z,1015.65
2017-05-22T04:27:05.197Z,1015.65
2017-05-22T04:27:31.333Z,1015.68
2017-05-22T04:27:57.477Z,1015.62
2017-05-22T04:28:23.639Z,1015.63
2017-05-22T04:28:49.806Z,1015.63
2017-05-22T04:29:15.929Z,1015.63
2017-05-22T04:29:42.021Z,1015.65
2017-05-22T04:30:08.190Z,1015.61
2017-05-22T04:30:34.338Z,1015.62
2017-05-22T04:31:00.479Z,1015.62
2017-05-22T04:31:26.632Z,1015.65
2017-05-22T04:31:52.747Z,1015.63
2017-05-22T04:32:18.886Z,1015.62
2017-05-22T04:32:45.035Z,1015.62
2017-05-22T04:33:11.177Z,1015.63
2017-05-22T04:33:37.338Z,1015.61
2017-05-22T04:34:03.466Z,1015.64
2017-05-22T04:34:29.608Z,1015.61
2017-05-22T04:34:55.762Z,1015.6
2017-05-22T04:35:21.868Z,1015.64
2017-05-22T04:35:47.955Z,1015.61
2017-05-22T04:36:14.102Z,1015.57
2017-05-22T04:36:40.207Z,1015.61
2017-05-22T04:37:06.298Z,1015.58
2017-05-22T04:37:32.395Z,1015.58
2017-05-22T04:37:58.526Z,1015.55
2017-05-22T04:38:24.671Z,1015.6
2017-05-22T04:38:50.790Z,1015.56
2017-05-22T04:39:16.927Z,1015.58
2017-05-22T04:39:43.054Z,1015.57
2017-05-22T04:40:09.165Z,1015.59
2017-05-22T04:40:35.297Z,1015.56
2017-05-22T04:41:01.395Z,1015.57
2017-05-22T04:41:27.511Z,1015.58
2017-05-22T04:41:53.642Z,1015.59
2017-05-22T04:42:19.776Z,1015.56
2017-05-22T04:42:45.895Z,1015.55
2017-05-22T04:43:12.021Z,1015.57
2017-05-22T04:43:38.133Z,1015.56
2017-05-22T04:44:04.268Z,1015.55
2017-05-22T04:44:30.397Z,1015.57
2017-05-22T04:44:56.536Z,1015.56
2017-05-22T04:45:22.636Z,1015.54
2017-05-22T04:45:48.796Z,1015.55
2017-05-22T04:46:14.885Z,1015.58
2017-05-22T04:46:40.984Z,1015.54
2017-05-22T04:47:07.118Z,1015.57
2017-05-22T04:47:33.208Z,1015.55
2017-05-22T04:47:59.357Z,1015.53
2017-05-22T04:48:25.477Z,1015.52
2017-05-22T04:48:51.602Z,1015.51
2017-05-22T04:49:17.706Z,1015.49
2017-05-22T04:49:43.869Z,1015.5
2017-05-22T04:50:10.019Z,1015.51
2017-05-22T04:50:36.154Z,1015.5
2017-05-22T04:51:02.244Z,1015.47
2017-05-22T04:51:28.339Z,1015.49
2017-05-22T04:51:54.447Z,1015.5
2017-05-22T04:52:20.563Z,1015.47
2017-05-22T04:52:46.705Z,1015.46
2017-05-22T04:53:12.868Z,1015.49
2017-05-22T04:53:39.023Z,1015.5
2017-05-22T04:54:05.147Z,1015.47
2017-05-22T04:54:31.237Z,1015.48
2017-05-22T04:54:57.385Z,1015.47
2017-05-22T04:55:23.491Z,1015.49
2017-05-22T04:55:49.584Z,1015.5
2017-05-22T04:56:15.699Z,1015.49
2017-05-22T04:56:41.809Z,1015.49
2017-05-22T04:57:07.934Z,1015.49
2017-05-22T04:57:34.100Z,1015.5
2017-05-22T04:58:00.286Z,1015.45
2017-05-22T04:58:26.388Z,1015.47
2017-05-22T04:58:52.528Z,1015.49
2017-05-22T04:59:18.658Z,1015.47
2017-05-22T04:59:44.777Z,1015.5
2017-05-22T05:00:10.914Z,1015.46
2017-05-22T05:00:37.011Z,1015.42
2017-05-22T05:01:03.101Z,1015.45
2017-05-22T05:01:29.207Z,1015.47
2017-05-22T05:01:55.333Z,1015.42
2017-05-22T05:02:21.423Z,1015.46
2017-05-22T05:02:47.551Z,1015.47
2017-05-22T05:03:13.685Z,1015.47
2017-05-22T05:03:39.799Z,1015.45
2017-05-22T05:04:05.926Z,1015.44
2017-05-22T05:04:32.088Z,1015.44
2017-05-22T05:04:58.203Z,1015.42
2017-05-22T05:05:24.361Z,1015.41
2017-05-22T05:05:50.475Z,1015.42
2017-05-22T05:06:16.580Z,1015.4
2017-05-22T05:06:42.685Z,1015.44
2017-05-22T05:07:08.778Z,1015.4
2017-05-22T05:07:34.875Z,1015.38
2017-05-22T05:08:01.010Z,1015.38
2017-05-22T05:08:27.123Z,1015.39
2017-05-22T05:08:53.222Z,1015.39
2017-05-22T05:09:19.356Z,1015.4
2017-05-22T05:09:45.475Z,1015.39
2017-05-22T05:10:11.617Z,1015.38
2017-05-22T05:10:37.747Z,1015.38
2017-05-22T05:11:03.846Z,1015.35
2017-05-22T05:11:29.952Z,1015.35
2017-05-22T05:11:56.043Z,1015.4
2017-05-22T05:12:22.141Z,1015.35
2017-05-22T05:12:48.406Z,1015.38
2017-05-22T05:13:14.499Z,1015.38
2017-05-22T05:13:40.591Z,1015.4
2017-05-22T05:14:06.756Z,1015.37
2017-05-22T05:14:32.907Z,1015.41
2017-05-22T05:14:59.023Z,1015.37
2017-05-22T05:15:25.129Z,1015.36
2017-05-22T05:15:51.232Z,1015.39
2017-05-22T05:16:17.333Z,1015.37
2017-05-22T05:16:43.426Z,1015.39
2017-05-22T05:17:09.543Z,1015.36